createdAt,value
2024-04-03T00:00:54.297Z,135.43
2024-04-03T00:01:54.236Z,134.25
2024-04-03T00:02:54.202Z,134.16
2024-04-03T00:03:54.215Z,133.85
2024-04-03T00:04:54.226Z,133.76
2024-04-03T00:05:54.262Z,134.53
2024-04-03T00:06:54.290Z,135.34
2024-04-03T00:07:54.317Z,135.74
2024-04-03T00:08:54.336Z,133.44
2024-04-03T00:09:54.344Z,135.54
2024-04-03T00:10:54.356Z,135.16
2024-04-03T00:11:54.359Z,133.53
2024-04-03T00:12:54.372Z,133.84
2024-04-03T00:13:54.379Z,132.48
2024-04-03T00:14:54.386Z,135.63
2024-04-03T00:15:54.406Z,133.28
2024-04-03T00:16:54.426Z,134.15
2024-04-03T00:17:54.463Z,133.43
2024-04-03T00:18:54.465Z,134.09
2024-04-03T00:19:54.469Z,134.13
2024-04-03T00:20:54.495Z,133.53
2024-04-03T00:21:54.512Z,132.68
2024-04-03T00:22:54.550Z,133.82
2024-04-03T00:23:54.551Z,133.27
2024-04-03T00:24:54.574Z,133.19
2024-04-03T00:25:54.593Z,132.87
2024-04-03T00:26:54.597Z,135.27
2024-04-03T00:27:54.639Z,134.95
2024-04-03T00:28:54.640Z,132.02
2024-04-03T00:29:54.658Z,134.14
2024-04-03T00:30:54.684Z,135.12
2024-04-03T00:31:54.699Z,134.96
2024-04-03T00:32:54.709Z,132.27
2024-04-03T00:33:54.738Z,134.70
2024-04-03T00:34:54.750Z,133.47
2024-04-03T00:35:54.772Z,133.51
2024-04-03T00:36:54.787Z,131.45
2024-04-03T00:37:54.814Z,133.85
2024-04-03T00:38:54.814Z,133.34
2024-04-03T00:39:54.828Z,132.46
2024-04-03T00:40:54.841Z,132.58
2024-04-03T00:41:54.860Z,133.17
2024-04-03T00:42:54.887Z,132.77
2024-04-03T00:43:54.918Z,133.98
2024-04-03T00:44:54.924Z,132.28
2024-04-03T00:45:55.677Z,132.24
2024-04-03T00:46:54.962Z,132.23
2024-04-03T00:47:54.985Z,134.06
2024-04-03T00:48:55.002Z,133.16
2024-04-03T00:49:55.010Z,133.58
2024-04-03T00:50:55.035Z,133.57
2024-04-03T00:51:55.050Z,130.79
2024-04-03T00:52:55.054Z,130.97
2024-04-03T00:53:55.071Z,130.36
2024-04-03T00:54:55.081Z,130.91
2024-04-03T00:55:55.100Z,132.64
2024-04-03T00:56:55.114Z,129.81
2024-04-03T00:57:55.150Z,130.66
2024-04-03T00:58:55.159Z,133.07
2024-04-03T00:59:55.259Z,131.26
2024-04-03T01:00:55.197Z,129.70
2024-04-03T01:01:55.222Z,130.62
2024-04-03T01:02:55.224Z,130.15
2024-04-03T01:03:55.248Z,129.48
2024-04-03T01:04:55.256Z,130.05
2024-04-03T01:05:55.271Z,131.48
2024-04-03T01:06:55.282Z,129.86
2024-04-03T01:07:55.309Z,130.24
2024-04-03T01:08:55.325Z,129.89
2024-04-03T01:09:55.335Z,132.46
2024-04-03T01:10:55.354Z,128.69
2024-04-03T01:11:55.365Z,130.29
2024-04-03T01:12:55.384Z,130.29
2024-04-03T01:13:55.396Z,128.45
2024-04-03T01:14:55.409Z,131.35
2024-04-03T01:15:55.420Z,129.01
2024-04-03T01:16:55.425Z,129.57
2024-04-03T01:17:55.446Z,129.87
2024-04-03T01:18:55.467Z,126.33
2024-04-03T01:19:55.477Z,129.54
2024-04-03T01:20:55.494Z,126.83
2024-04-03T01:21:55.506Z,129.99
2024-04-03T01:22:55.520Z,131.06
2024-04-03T01:23:55.538Z,127.74
2024-04-03T01:24:55.572Z,130.07
2024-04-03T01:25:55.561Z,130.61
2024-04-03T01:26:55.587Z,130.09
2024-04-03T01:27:55.608Z,128.87
2024-04-03T01:28:55.623Z,128.89
2024-04-03T01:29:55.644Z,128.93
2024-04-03T01:30:55.671Z,128.05
2024-04-03T01:31:55.675Z,126.63
2024-04-03T01:32:55.688Z,128.61
2024-04-03T01:33:55.710Z,129.25
2024-04-03T01:34:55.726Z,125.76
2024-04-03T01:35:55.736Z,130.81
2024-04-03T01:36:55.783Z,129.68
2024-04-03T01:37:55.780Z,129.35
2024-04-03T01:38:55.808Z,128.66
2024-04-03T01:39:55.832Z,125.79
2024-04-03T01:40:55.835Z,127.47
2024-04-03T01:41:55.860Z,128.39
2024-04-03T01:42:55.886Z,128.03
2024-04-03T01:43:55.906Z,130.37
2024-04-03T01:44:55.923Z,129.16
2024-04-03T01:45:55.960Z,128.47
2024-04-03T01:46:55.965Z,127.88
2024-04-03T01:47:56.010Z,127.88
2024-04-03T01:48:56.018Z,128.36
2024-04-03T01:49:56.041Z,128.34
2024-04-03T01:50:56.078Z,129.44
2024-04-03T01:51:56.082Z,129.11
2024-04-03T01:52:56.106Z,127.07
2024-04-03T01:53:56.157Z,129.04
2024-04-03T01:54:56.159Z,127.27
2024-04-03T01:55:56.193Z,126.92
2024-04-03T01:56:56.193Z,127.25
2024-04-03T01:57:56.212Z,128.55
2024-04-03T01:58:56.239Z,126.51
2024-04-03T01:59:57.207Z,127.37
2024-04-03T02:00:56.288Z,127.37
2024-04-03T02:01:56.298Z,127.12
2024-04-03T02:02:56.342Z,127.46
2024-04-03T02:03:56.402Z,127.02
2024-04-03T02:04:56.372Z,126.86
2024-04-03T02:05:56.389Z,129.46
2024-04-03T02:06:56.424Z,127.64
2024-04-03T02:07:56.432Z,127.38
2024-04-03T02:08:56.443Z,127.82
2024-04-03T02:09:56.469Z,126.78
2024-04-03T02:10:56.511Z,127.26
2024-04-03T02:11:56.511Z,128.06
2024-04-03T02:12:56.553Z,127.98
2024-04-03T02:13:56.549Z,126.02
2024-04-03T02:14:56.578Z,127.26
2024-04-03T02:15:56.595Z,126.26
2024-04-03T02:16:56.607Z,125.38
2024-04-03T02:17:56.885Z,125.40
2024-04-03T02:18:56.655Z,126.86
2024-04-03T02:19:56.665Z,126.41
2024-04-03T02:20:56.688Z,124.74
2024-04-03T02:21:56.720Z,127.27
2024-04-03T02:22:56.740Z,126.02
2024-04-03T02:23:57.827Z,127.35
2024-04-03T02:24:57.777Z,127.38
2024-04-03T02:25:56.773Z,127.36
2024-04-03T02:26:56.793Z,126.31
2024-04-03T02:27:56.795Z,125.07
2024-04-03T02:28:56.815Z,126.26
2024-04-03T02:29:56.827Z,126.87
2024-04-03T02:30:56.804Z,125.51
2024-04-03T02:31:56.812Z,126.56
2024-04-03T02:32:56.839Z,126.10
2024-04-03T02:33:56.836Z,126.08
2024-04-03T02:34:56.869Z,126.41
2024-04-03T02:35:56.846Z,126.03
2024-04-03T02:36:56.858Z,124.77
2024-04-03T02:37:56.863Z,126.26
2024-04-03T02:38:56.874Z,124.95
2024-04-03T02:39:56.902Z,126.44
2024-04-03T02:40:56.876Z,125.25
2024-04-03T02:41:56.900Z,124.95
2024-04-03T02:42:56.892Z,124.49
2024-04-03T02:43:56.907Z,124.88
2024-04-03T02:44:56.901Z,124.34
2024-04-03T02:45:56.905Z,124.18
2024-04-03T02:46:56.918Z,123.92
2024-04-03T02:47:56.920Z,125.16
2024-04-03T02:48:56.926Z,123.40
2024-04-03T02:49:56.937Z,123.10
2024-04-03T02:50:56.989Z,124.71
2024-04-03T02:51:56.946Z,122.21
2024-04-03T02:52:56.973Z,122.78
2024-04-03T02:53:57.004Z,122.44
2024-04-03T02:54:57.022Z,122.78
2024-04-03T02:55:57.060Z,123.70
2024-04-03T02:56:57.059Z,124.74
2024-04-03T02:57:57.078Z,120.89
2024-04-03T02:58:57.118Z,124.43
2024-04-03T02:59:57.119Z,122.83
2024-04-03T03:00:57.150Z,123.70
2024-04-03T03:01:57.168Z,123.01
2024-04-03T03:02:57.215Z,122.94
2024-04-03T03:03:57.224Z,123.84
2024-04-03T03:04:57.260Z,123.87
2024-04-03T03:05:57.270Z,124.15
2024-04-03T03:06:57.299Z,123.78
2024-04-03T03:07:57.313Z,126.32
2024-04-03T03:08:57.338Z,124.79
2024-04-03T03:09:57.355Z,125.22
2024-04-03T03:10:57.379Z,124.32
2024-04-03T03:11:57.405Z,124.19
2024-04-03T03:12:57.434Z,123.90
2024-04-03T03:13:57.448Z,123.56
2024-04-03T03:14:58.238Z,125.05
2024-04-03T03:15:57.466Z,125.27
2024-04-03T03:16:57.491Z,125.35
2024-04-03T03:17:57.518Z,124.99
2024-04-03T03:18:57.533Z,121.43
2024-04-03T03:19:57.554Z,122.74
2024-04-03T03:20:57.566Z,123.36
2024-04-03T03:21:57.604Z,123.76
2024-04-03T03:22:57.592Z,122.55
2024-04-03T03:23:57.626Z,121.14
2024-04-03T03:24:57.624Z,124.30
2024-04-03T03:25:57.639Z,123.90
2024-04-03T03:26:57.651Z,121.36
2024-04-03T03:27:57.667Z,121.86
2024-04-03T03:28:57.702Z,121.25
2024-04-03T03:29:57.693Z,123.03
2024-04-03T03:30:57.723Z,121.88
2024-04-03T03:31:57.747Z,123.34
2024-04-03T03:32:57.820Z,121.39
2024-04-03T03:33:57.819Z,124.83
2024-04-03T03:34:57.825Z,121.14
2024-04-03T03:35:57.840Z,122.08
2024-04-03T03:36:57.849Z,120.10
2024-04-03T03:37:57.863Z,121.09
2024-04-03T03:38:57.883Z,121.64
2024-04-03T03:39:57.895Z,121.78
2024-04-03T03:40:57.911Z,122.14
2024-04-03T03:41:57.895Z,122.40
2024-04-03T03:42:57.892Z,122.20
2024-04-03T03:43:57.922Z,121.36
2024-04-03T03:44:57.951Z,120.82
2024-04-03T03:45:57.964Z,121.58
2024-04-03T03:46:57.974Z,121.10
2024-04-03T03:47:58.026Z,121.04
2024-04-03T03:48:58.023Z,121.76
2024-04-03T03:49:58.029Z,120.74
2024-04-03T03:50:58.057Z,118.79
2024-04-03T03:51:58.074Z,121.59
2024-04-03T03:52:58.144Z,120.25
2024-04-03T03:53:58.189Z,121.21
2024-04-03T03:54:58.196Z,121.89
2024-04-03T03:55:58.224Z,120.64
2024-04-03T03:56:58.277Z,119.87
2024-04-03T03:57:58.303Z,118.99
2024-04-03T03:58:58.317Z,120.53
2024-04-03T03:59:58.319Z,121.26
2024-04-03T04:00:58.318Z,118.67
2024-04-03T04:01:58.359Z,119.85
2024-04-03T04:02:58.333Z,120.03
2024-04-03T04:03:58.339Z,119.65
2024-04-03T04:04:58.357Z,120.04
2024-04-03T04:05:58.389Z,119.76
2024-04-03T04:06:58.404Z,117.63
2024-04-03T04:07:58.427Z,119.72
2024-04-03T04:08:58.438Z,119.75
2024-04-03T04:09:58.432Z,118.40
2024-04-03T04:10:58.450Z,119.73
2024-04-03T04:11:58.465Z,117.03
2024-04-03T04:12:58.475Z,120.29
2024-04-03T04:13:58.493Z,120.19
2024-04-03T04:14:58.510Z,118.59
2024-04-03T04:15:58.532Z,118.35
2024-04-03T04:16:58.563Z,121.26
2024-04-03T04:17:58.629Z,117.28
2024-04-03T04:18:58.660Z,116.76
2024-04-03T04:19:58.726Z,120.14
2024-04-03T04:20:58.721Z,117.87
2024-04-03T04:21:58.788Z,118.04
2024-04-03T04:22:58.799Z,116.89
2024-04-03T04:23:58.802Z,118.62
2024-04-03T04:24:58.770Z,118.91
2024-04-03T04:25:58.806Z,117.92
2024-04-03T04:26:58.772Z,116.99
2024-04-03T04:27:58.756Z,117.95
2024-04-03T04:28:58.757Z,117.75
2024-04-03T04:29:58.786Z,117.03
2024-04-03T04:30:58.880Z,116.83
2024-04-03T04:31:58.841Z,119.79
2024-04-03T04:32:58.855Z,116.05
2024-04-03T04:33:58.844Z,117.42
2024-04-03T04:35:00.933Z,118.41
2024-04-03T04:35:58.895Z,118.42
2024-04-03T04:36:58.838Z,117.03
2024-04-03T04:37:58.884Z,116.97
2024-04-03T04:38:58.895Z,116.03
2024-04-03T04:39:58.838Z,115.52
2024-04-03T04:40:58.891Z,115.03
2024-04-03T04:41:58.828Z,119.53
2024-04-03T04:42:58.837Z,118.73
2024-04-03T04:43:58.872Z,117.62
2024-04-03T04:44:58.837Z,118.43
2024-04-03T04:45:58.835Z,114.38
2024-04-03T04:46:58.804Z,116.87
2024-04-03T04:47:58.815Z,115.76
2024-04-03T04:48:58.817Z,116.85
2024-04-03T04:49:58.849Z,117.82
2024-04-03T04:50:58.807Z,117.75
2024-04-03T04:51:58.869Z,116.29
2024-04-03T04:52:58.808Z,114.77
2024-04-03T04:53:58.869Z,114.00
2024-04-03T04:54:58.812Z,118.42
2024-04-03T04:55:58.848Z,115.61
2024-04-03T04:56:58.887Z,116.11
2024-04-03T04:57:58.837Z,116.74
2024-04-03T04:59:06.172Z,50.00
2024-04-03T05:00:06.192Z,50.00
2024-04-03T05:01:06.175Z,50.00
2024-04-03T05:02:06.184Z,50.00
2024-04-03T05:03:06.208Z,50.00
2024-04-03T05:04:06.177Z,51.08
2024-04-03T05:05:06.175Z,52.74
2024-04-03T05:06:06.181Z,51.89
2024-04-03T05:07:06.166Z,50.96
2024-04-03T05:08:06.164Z,52.05
2024-04-03T05:09:06.178Z,50.07
2024-04-03T05:10:06.177Z,51.07
2024-04-03T05:11:06.188Z,50.95
2024-04-03T05:12:06.173Z,50.96
2024-04-03T05:13:06.177Z,52.19
2024-04-03T05:14:06.187Z,51.25
2024-04-03T05:15:06.215Z,52.77
2024-04-03T05:16:06.198Z,53.09
2024-04-03T05:17:08.216Z,52.35
2024-04-03T05:18:06.208Z,52.36
2024-04-03T05:19:06.218Z,52.36
2024-04-03T05:20:06.215Z,52.50
2024-04-03T05:21:06.244Z,50.19
2024-04-03T05:22:06.223Z,50.96
2024-04-03T05:23:06.732Z,51.55
2024-04-03T05:24:06.254Z,51.31
2024-04-03T05:25:06.237Z,50.46
2024-04-03T05:26:06.229Z,52.48
2024-04-03T05:27:06.226Z,50.70
2024-04-03T05:28:06.778Z,53.45
2024-04-03T05:29:06.252Z,50.00
2024-04-03T05:30:06.292Z,51.08
2024-04-03T05:31:07.226Z,54.55
2024-04-03T05:32:06.782Z,54.64
2024-04-03T05:33:06.303Z,54.56
2024-04-03T05:34:07.713Z,57.33
2024-04-03T05:35:07.252Z,61.38
2024-04-03T05:36:06.295Z,66.53
2024-04-03T05:37:06.348Z,66.48
2024-04-03T05:38:06.310Z,64.31
2024-04-03T05:39:06.393Z,71.86
2024-04-03T05:40:06.578Z,68.04
2024-04-03T05:41:12.959Z,59.56
2024-04-03T05:42:07.372Z,55.52
2024-04-03T05:43:06.397Z,47.46
2024-04-03T05:44:06.428Z,35.35
2024-04-03T05:45:06.456Z,30.68
2024-04-03T05:46:06.471Z,22.95
2024-04-03T05:47:06.510Z,37.82
2024-04-03T05:48:06.522Z,50.00
2024-04-03T05:49:06.560Z,50.74
2024-04-03T05:50:07.301Z,50.00
2024-04-03T05:51:06.608Z,50.43
2024-04-03T05:52:06.635Z,50.00
2024-04-03T05:53:06.676Z,53.73
2024-04-03T05:54:06.714Z,50.14
2024-04-03T05:55:06.780Z,51.41
2024-04-03T05:56:06.865Z,50.00
2024-04-03T05:57:06.955Z,50.00
2024-04-03T05:58:07.126Z,51.34
2024-04-03T05:59:07.130Z,50.00
2024-04-03T06:00:07.235Z,50.69
2024-04-03T06:01:07.297Z,50.02
2024-04-03T06:02:07.378Z,52.85
2024-04-03T06:03:07.445Z,51.18
2024-04-03T06:04:07.504Z,50.52
2024-04-03T06:05:07.554Z,50.90
2024-04-03T06:06:07.590Z,50.00
2024-04-03T06:07:07.665Z,52.90
2024-04-03T06:08:07.671Z,51.00
2024-04-03T06:09:07.699Z,51.71
2024-04-03T06:10:07.738Z,52.58
2024-04-03T06:11:07.817Z,52.43
2024-04-03T06:12:07.901Z,55.02
2024-04-03T06:13:07.990Z,50.00
2024-04-03T06:14:08.061Z,52.68
2024-04-03T06:15:08.119Z,53.13
2024-04-03T06:16:08.186Z,57.74
2024-04-03T06:17:08.223Z,61.72
2024-04-03T06:18:08.288Z,88.27
2024-04-03T06:19:08.295Z,115.76
2024-04-03T06:20:08.336Z,118.09
2024-04-03T06:21:08.352Z,115.20
2024-04-03T06:22:08.422Z,119.17
2024-04-03T06:23:08.483Z,125.78
2024-04-03T06:24:08.549Z,132.34
2024-04-03T06:25:08.627Z,134.70
2024-04-03T06:26:08.642Z,139.96
2024-04-03T06:27:08.685Z,144.07
2024-04-03T06:28:09.229Z,148.45
2024-04-03T06:29:08.767Z,158.25
2024-04-03T06:30:08.792Z,161.52
2024-04-03T06:31:08.855Z,167.06
2024-04-03T06:32:08.855Z,172.04
2024-04-03T06:33:08.867Z,177.31
2024-04-03T06:34:08.899Z,182.50
2024-04-03T06:35:08.926Z,188.55
2024-04-03T06:36:09.808Z,193.48
2024-04-03T06:37:12.325Z,200.09
2024-04-03T06:38:08.941Z,200.00
2024-04-03T06:39:08.929Z,200.14
2024-04-03T06:40:08.920Z,199.22
2024-04-03T06:41:08.916Z,199.91
2024-04-03T06:42:08.925Z,200.00
2024-04-03T06:43:08.914Z,199.92
2024-04-03T06:44:08.913Z,196.52
2024-04-03T06:45:08.959Z,189.72
2024-04-03T06:46:08.959Z,183.31
2024-04-03T06:47:08.925Z,175.48
2024-04-03T06:48:08.961Z,174.00
2024-04-03T06:49:08.946Z,173.02
2024-04-03T06:50:08.941Z,169.48
2024-04-03T06:51:08.936Z,169.77
2024-04-03T06:52:08.949Z,165.38
2024-04-03T06:53:08.944Z,163.32
2024-04-03T06:54:08.954Z,157.63
2024-04-03T06:55:08.950Z,156.16
2024-04-03T06:56:08.954Z,156.01
2024-04-03T06:57:08.961Z,150.96
2024-04-03T06:58:09.248Z,148.39
2024-04-03T06:59:09.021Z,144.30
2024-04-03T07:00:09.974Z,143.37
2024-04-03T07:01:08.972Z,139.85
2024-04-03T07:02:08.971Z,138.29
2024-04-03T07:03:08.991Z,138.27
2024-04-03T07:04:08.989Z,134.86
2024-04-03T07:05:09.018Z,134.14
2024-04-03T07:06:09.006Z,129.26
2024-04-03T07:07:09.019Z,126.41
2024-04-03T07:08:09.014Z,124.73
2024-04-03T07:09:09.056Z,125.74
2024-04-03T07:10:09.165Z,122.45
2024-04-03T07:11:09.817Z,121.47
2024-04-03T07:12:09.238Z,120.96
2024-04-03T07:13:09.286Z,122.96
2024-04-03T07:14:09.333Z,124.61
2024-04-03T07:15:09.355Z,125.52
2024-04-03T07:16:10.262Z,130.24
2024-04-03T07:17:09.394Z,132.88
2024-04-03T07:18:09.413Z,134.82
2024-04-03T07:19:09.445Z,139.16
2024-04-03T07:20:09.448Z,143.57
2024-04-03T07:21:09.494Z,147.14
2024-04-03T07:22:09.456Z,147.48
2024-04-03T07:23:09.463Z,149.46
2024-04-03T07:24:09.471Z,153.03
2024-04-03T07:25:09.485Z,160.58
2024-04-03T07:26:09.528Z,159.46
2024-04-03T07:27:09.568Z,156.30
2024-04-03T07:28:09.861Z,146.68
2024-04-03T07:29:09.700Z,138.46
2024-04-03T07:30:09.763Z,131.79
2024-04-03T07:31:09.838Z,129.22
2024-04-03T07:32:09.895Z,128.65
2024-04-03T07:33:09.932Z,122.34
2024-04-03T07:34:09.988Z,119.91
2024-04-03T07:35:10.015Z,123.47
2024-04-03T07:36:10.071Z,127.94
2024-04-03T07:37:10.064Z,130.52
2024-04-03T07:38:10.083Z,133.53
2024-04-03T07:39:13.361Z,137.25
2024-04-03T07:40:10.096Z,140.97
2024-04-03T07:41:10.100Z,144.30
2024-04-03T07:42:10.110Z,148.84
2024-04-03T07:43:10.099Z,153.28
2024-04-03T07:44:10.096Z,156.95
2024-04-03T07:45:10.093Z,161.06
2024-04-03T07:46:10.087Z,162.53
2024-04-03T07:47:10.080Z,167.86
2024-04-03T07:48:10.134Z,171.15
2024-04-03T07:49:10.076Z,174.88
2024-04-03T07:50:10.074Z,180.88
2024-04-03T07:51:10.064Z,177.98
2024-04-03T07:52:10.059Z,179.25
2024-04-03T07:53:10.062Z,178.43
2024-04-03T07:54:10.067Z,175.91
2024-04-03T07:55:10.075Z,168.46
2024-04-03T07:56:10.081Z,160.80
2024-04-03T07:57:10.097Z,153.44
2024-04-03T07:58:10.103Z,145.28
2024-04-03T07:59:10.130Z,135.98
2024-04-03T08:00:11.765Z,125.90
2024-04-03T08:01:10.768Z,120.10
2024-04-03T08:02:10.204Z,115.48
2024-04-03T08:03:14.687Z,107.50
2024-04-03T08:04:11.190Z,106.89
2024-04-03T08:05:10.203Z,101.68
2024-04-03T08:06:10.843Z,97.35
2024-04-03T08:07:10.210Z,94.81
2024-04-03T08:08:12.798Z,95.77
2024-04-03T08:09:10.270Z,96.75
2024-04-03T08:10:10.252Z,94.92
2024-04-03T08:11:10.244Z,92.80
2024-04-03T08:12:10.258Z,91.32
2024-04-03T08:13:10.272Z,90.93
2024-04-03T08:14:13.169Z,90.25
2024-04-03T08:15:10.292Z,89.27
2024-04-03T08:16:10.293Z,81.44
2024-04-03T08:17:10.339Z,78.29
2024-04-03T08:18:10.315Z,77.71
2024-04-03T08:19:10.872Z,80.45
2024-04-03T08:20:11.691Z,83.18
2024-04-03T08:21:10.330Z,87.87
2024-04-03T08:22:10.326Z,89.98
2024-04-03T08:23:10.329Z,90.91
2024-04-03T08:24:11.275Z,90.97
2024-04-03T08:25:10.346Z,90.32
2024-04-03T08:26:10.357Z,85.63
2024-04-03T08:27:10.369Z,82.39
2024-04-03T08:28:10.380Z,77.00
2024-04-03T08:29:10.400Z,72.14
2024-04-03T08:30:10.414Z,69.48
2024-04-03T08:31:10.458Z,65.17
2024-04-03T08:32:10.437Z,60.14
2024-04-03T08:33:10.861Z,54.24
2024-04-03T08:34:10.976Z,50.92
2024-04-03T08:35:11.285Z,52.50
2024-04-03T08:36:10.494Z,52.24
2024-04-03T08:37:10.514Z,49.35
2024-04-03T08:38:10.529Z,51.27
2024-04-03T08:39:10.532Z,52.02
2024-04-03T08:40:10.556Z,50.32
2024-04-03T08:41:10.567Z,52.30
2024-04-03T08:42:10.578Z,50.35
2024-04-03T08:43:10.598Z,51.71
2024-04-03T08:44:10.646Z,49.95
2024-04-03T08:45:10.642Z,50.12
2024-04-03T08:46:10.708Z,50.00
2024-04-03T08:47:10.769Z,52.51
2024-04-03T08:48:10.837Z,53.62
2024-04-03T08:49:12.406Z,49.69
2024-04-03T08:50:10.994Z,50.87
2024-04-03T08:51:11.064Z,51.99
2024-04-03T08:52:11.145Z,51.86
2024-04-03T08:53:11.213Z,51.48
2024-04-03T08:54:11.302Z,50.00
2024-04-03T08:55:11.383Z,51.94
2024-04-03T08:56:11.488Z,49.21
2024-04-03T08:57:11.541Z,51.81
2024-04-03T08:58:11.617Z,51.00
2024-04-03T08:59:11.707Z,50.74
2024-04-03T09:00:11.770Z,51.99
2024-04-03T09:01:11.865Z,50.00
2024-04-03T09:02:11.937Z,50.91
2024-04-03T09:03:12.038Z,50.84
2024-04-03T09:04:12.112Z,52.08
2024-04-03T09:05:12.206Z,51.06
2024-04-03T09:06:12.261Z,52.73
2024-04-03T09:07:12.334Z,51.71
2024-04-03T09:08:12.433Z,51.12
2024-04-03T09:09:12.500Z,50.91
2024-04-03T09:10:12.590Z,50.84
2024-04-03T09:11:12.673Z,47.57
2024-04-03T09:12:12.766Z,51.13
2024-04-03T09:13:12.842Z,50.84
2024-04-03T09:14:13.850Z,50.70
2024-04-03T09:15:12.994Z,51.28
2024-04-03T09:16:13.073Z,51.72
2024-04-03T09:17:13.171Z,51.20
2024-04-03T09:18:13.250Z,50.31
2024-04-03T09:19:13.334Z,49.56
2024-04-03T09:20:13.407Z,51.97
2024-04-03T09:21:13.496Z,55.39
2024-04-03T09:22:14.334Z,53.32
2024-04-03T09:23:13.637Z,52.66
2024-04-03T09:24:13.799Z,53.95
2024-04-03T09:25:13.818Z,52.28
2024-04-03T09:26:13.880Z,54.68
2024-04-03T09:27:13.934Z,52.32
2024-04-03T09:28:14.008Z,51.12
2024-04-03T09:29:14.063Z,50.77
2024-04-03T09:30:14.151Z,52.55
2024-04-03T09:31:14.231Z,53.36
2024-04-03T09:32:14.278Z,51.93
2024-04-03T09:33:14.362Z,53.94
2024-04-03T09:34:14.436Z,53.42
2024-04-03T09:35:14.514Z,53.82
2024-04-03T09:36:14.590Z,51.43
2024-04-03T09:37:14.670Z,50.50
2024-04-03T09:38:14.764Z,51.53
2024-04-03T09:39:14.829Z,51.42
2024-04-03T09:40:14.898Z,52.57
2024-04-03T09:41:14.976Z,51.97
2024-04-03T09:42:15.035Z,50.00
2024-04-03T09:43:15.101Z,51.44
2024-04-03T09:44:15.303Z,52.49
2024-04-03T09:45:15.258Z,52.96
2024-04-03T09:46:15.314Z,51.86
2024-04-03T09:47:15.386Z,53.28
2024-04-03T09:48:15.455Z,54.57
2024-04-03T09:49:15.528Z,50.96
2024-04-03T09:50:15.600Z,53.41
2024-04-03T09:51:15.675Z,52.38
2024-04-03T09:52:15.751Z,50.00
2024-04-03T09:53:15.813Z,54.59
2024-04-03T09:54:15.881Z,55.50
2024-04-03T09:55:15.968Z,52.64
2024-04-03T09:56:16.023Z,52.75
2024-04-03T09:57:16.091Z,53.75
2024-04-03T09:58:16.166Z,51.91
2024-04-03T09:59:16.313Z,53.26
2024-04-03T10:00:16.813Z,50.76
2024-04-03T10:01:16.344Z,54.81
2024-04-03T10:02:17.314Z,51.89
2024-04-03T10:03:16.459Z,53.10
2024-04-03T10:04:17.315Z,54.57
2024-04-03T10:05:16.561Z,52.59
2024-04-03T10:06:16.625Z,53.47
2024-04-03T10:07:16.682Z,54.96
2024-04-03T10:08:16.740Z,52.12
2024-04-03T10:09:16.816Z,54.12
2024-04-03T10:10:16.874Z,52.19
2024-04-03T10:11:16.920Z,52.40
2024-04-03T10:12:16.967Z,56.72
2024-04-03T10:13:17.030Z,54.82
2024-04-03T10:14:17.085Z,50.52
2024-04-03T10:15:17.891Z,50.99
2024-04-03T10:16:17.191Z,52.40
2024-04-03T10:17:17.221Z,51.02
2024-04-03T10:18:17.245Z,49.94
2024-04-03T10:19:17.274Z,55.96
2024-04-03T10:20:18.276Z,56.04
2024-04-03T10:21:17.902Z,56.90
2024-04-03T10:22:17.281Z,59.48
2024-04-03T10:23:17.297Z,62.98
2024-04-03T10:24:17.296Z,71.43
2024-04-03T10:25:17.304Z,74.80
2024-04-03T10:26:17.294Z,77.38
2024-04-03T10:27:17.901Z,77.90
2024-04-03T10:28:17.302Z,80.15
2024-04-03T10:29:17.316Z,80.82
2024-04-03T10:30:17.316Z,83.20
2024-04-03T10:31:17.311Z,85.16
2024-04-03T10:32:17.321Z,87.54
2024-04-03T10:33:17.408Z,90.97
2024-04-03T10:34:17.463Z,92.77
2024-04-03T10:35:17.514Z,94.72
2024-04-03T10:36:17.549Z,94.78
2024-04-03T10:37:17.619Z,97.29
2024-04-03T10:38:17.691Z,99.23
2024-04-03T10:39:17.752Z,100.14
2024-04-03T10:40:17.810Z,101.14
2024-04-03T10:41:17.867Z,102.01
2024-04-03T10:42:18.012Z,104.53
2024-04-03T10:43:17.977Z,107.15
2024-04-03T10:44:18.042Z,108.99
2024-04-03T10:45:18.099Z,110.25
2024-04-03T10:46:18.156Z,111.63
2024-04-03T10:47:18.254Z,111.59
2024-04-03T10:48:18.275Z,113.84
2024-04-03T10:49:18.354Z,114.57
2024-04-03T10:50:18.407Z,116.01
2024-04-03T10:51:18.470Z,117.02
2024-04-03T10:52:18.539Z,116.54
2024-04-03T10:53:19.335Z,119.23
2024-04-03T10:54:18.653Z,122.17
2024-04-03T10:55:18.675Z,123.42
2024-04-03T10:56:18.723Z,124.34
2024-04-03T10:57:18.776Z,124.37
2024-04-03T10:58:18.833Z,125.04
2024-04-03T10:59:18.879Z,123.91
2024-04-03T11:00:18.956Z,124.33
2024-04-03T11:01:18.985Z,125.21
2024-04-03T11:02:19.155Z,124.83
2024-04-03T11:03:19.098Z,125.61
2024-04-03T11:04:19.157Z,123.77
2024-04-03T11:05:19.208Z,126.24
2024-04-03T11:06:19.256Z,129.76
2024-04-03T11:07:19.297Z,130.62
2024-04-03T11:08:19.321Z,134.30
2024-04-03T11:09:19.368Z,137.45
2024-04-03T11:10:19.399Z,141.50
2024-04-03T11:11:19.412Z,146.48
2024-04-03T11:12:19.461Z,149.33
2024-04-03T11:13:19.474Z,152.18
2024-04-03T11:14:19.536Z,154.44
2024-04-03T11:15:20.453Z,157.05
2024-04-03T11:16:20.543Z,157.19
2024-04-03T11:17:19.526Z,158.15
2024-04-03T11:18:19.514Z,160.03
2024-04-03T11:19:19.509Z,163.66
2024-04-03T11:20:19.510Z,169.33
2024-04-03T11:21:19.493Z,172.48
2024-04-03T11:22:19.488Z,174.02
2024-04-03T11:23:19.499Z,176.45
2024-04-03T11:24:19.487Z,176.11
2024-04-03T11:25:19.475Z,177.73
2024-04-03T11:26:19.460Z,179.09
2024-04-03T11:27:19.466Z,181.30
2024-04-03T11:28:19.481Z,181.87
2024-04-03T11:29:19.460Z,183.07
2024-04-03T11:30:19.447Z,184.97
2024-04-03T11:31:19.514Z,185.74
2024-04-03T11:32:19.426Z,187.71
2024-04-03T11:33:19.421Z,188.23
2024-04-03T11:34:19.543Z,189.07
2024-04-03T11:35:19.454Z,190.45
2024-04-03T11:36:19.408Z,192.18
2024-04-03T11:37:19.412Z,192.69
2024-04-03T11:38:19.408Z,192.75
2024-04-03T11:39:19.406Z,194.51
2024-04-03T11:40:19.391Z,196.23
2024-04-03T11:41:19.379Z,195.88
2024-04-03T11:42:19.372Z,196.75
2024-04-03T11:43:19.374Z,197.74
2024-04-03T11:44:19.378Z,198.16
2024-04-03T11:45:19.364Z,199.80
2024-04-03T11:46:21.997Z,200.00
2024-04-03T11:47:19.357Z,199.27
2024-04-03T11:48:19.347Z,199.27
2024-04-03T11:49:19.855Z,200.00
2024-04-03T11:50:19.939Z,199.33
2024-04-03T11:51:19.336Z,200.00
2024-04-03T11:52:19.317Z,199.04
2024-04-03T11:53:19.317Z,200.00
2024-04-03T11:54:19.319Z,199.17
2024-04-03T11:55:19.298Z,199.77
2024-04-03T11:56:19.283Z,199.52
2024-04-03T11:57:19.276Z,199.98
2024-04-03T11:58:19.275Z,198.68
2024-04-03T11:59:19.274Z,199.50
2024-04-03T12:00:19.271Z,199.38
2024-04-03T12:01:19.258Z,199.45
2024-04-03T12:02:19.235Z,198.78
2024-04-03T12:03:19.258Z,199.13
2024-04-03T12:04:19.220Z,200.00
2024-04-03T12:05:19.210Z,199.53
2024-04-03T12:06:19.217Z,199.05
2024-04-03T12:07:19.196Z,199.43
2024-04-03T12:08:19.197Z,199.57
2024-04-03T12:09:19.187Z,199.48
2024-04-03T12:10:20.959Z,199.44
2024-04-03T12:11:19.180Z,199.11
2024-04-03T12:12:19.176Z,200.00
2024-04-03T12:13:19.171Z,198.36
2024-04-03T12:14:19.231Z,199.96
2024-04-03T12:15:19.174Z,199.09
2024-04-03T12:16:19.953Z,199.79
2024-04-03T12:17:19.181Z,199.96
2024-04-03T12:18:19.160Z,198.74
2024-04-03T12:19:19.229Z,199.03
2024-04-03T12:20:19.161Z,198.32
2024-04-03T12:21:19.180Z,198.86
2024-04-03T12:22:19.308Z,199.17
2024-04-03T12:23:19.287Z,200.00
2024-04-03T12:24:19.311Z,198.28
2024-04-03T12:25:20.231Z,199.80
2024-04-03T12:26:19.396Z,199.40
2024-04-03T12:27:19.460Z,199.77
2024-04-03T12:28:19.497Z,199.23
2024-04-03T12:29:19.533Z,198.21
2024-04-03T12:30:19.581Z,198.81
2024-04-03T12:31:19.661Z,198.89
2024-04-03T12:32:19.661Z,198.52
2024-04-03T12:33:19.702Z,199.73
2024-04-03T12:34:19.760Z,198.47
2024-04-03T12:35:19.789Z,198.03
2024-04-03T12:36:32.831Z,200.21